Date,TemperatureHighF,TemperatureAvgF,TemperatureLowF,DewpointHighF,DewpointAvgF,DewpointLowF,HumidityHigh,HumidityAvg,HumidityLow,PressureMaxIn,PressureMinIn,WindSpeedMaxMPH,WindSpeedAvgMPH,GustSpeedMaxMPH,PrecipitationSumIn
2013-1-24,18.7,9.7,4.5,-6.3,-13.5,-99.9,60,37,25,30.09,29.94,16,-23,0,0.00
2013-1-25,14.9,7.6,-1.5,6.9,-4.7,-8.9,82,58,39,30.09,29.78,6,3,0,0.00
2013-1-26,19.4,11.4,4.3,7.2,2.8,-3.1,90,69,39,30.04,29.77,9,2,0,0.00
2013-1-27,25.9,13.2,1.0,5.8,2.1,-2.4,87,63,38,30.20,30.03,6,3,0,0.00
2013-1-28,23.0,18.4,12.6,21.3,13.3,4.6,93,80,67,30.14,29.63,5,2,0,0.01
2013-1-29,34.3,29.2,23.2,31.4,25.9,21.5,96,88,76,29.83,29.66,5,2,0,0.04
2013-1-30,53.1,45.1,34.0,52.8,44.5,33.2,99,98,95,29.69,29.06,10,5,0,0.67
2013-1-31,54.3,38.7,26.8,54.0,26.8,8.1,99,65,42,29.46,28.66,39,14,0,2.83
2013-2-1,26.6,22.2,16.0,17.5,7.8,1.5,86,54,41,30.04,29.45,19,9,0,0.01
2013-2-2,23.0,17.3,9.1,17.5,8.0,1.3,87,67,53,30.09,29.91,12,4,0,0.00
2013-2-3,28.8,19.3,10.6,12.1,10.1,7.7,89,69,45,29.93,29.66,6,3,0,0.00
2013-2-4,25.2,20.3,15.4,13.4,6.6,1.2,73,56,36,29.85,29.64,19,7,0,0.04
2013-2-5,26.6,18.0,7.7,10.9,6.0,-0.8,84,60,42,29.96,29.80,7,3,0,0.00
2013-2-6,33.8,25.3,16.7,21.9,9.3,-2.4,85,55,21,30.29,29.80,17,6,0,0.00
2013-2-7,21.0,15.4,9.7,4.8,1.1,-1.8,62,53,41,30.50,30.28,8,4,0,0.00
2013-2-8,29.1,20.9,14.5,22.3,15.8,3.2,93,81,60,30.30,29.73,14,6,0,0.00
2013-2-9,26.1,17.0,5.4,20.4,6.4,-1.0,91,65,31,30.26,29.74,18,7,0,0.00
2013-2-10,27.7,11.9,-2.4,6.8,1.7,-5.8,89,66,33,30.40,30.14,5,2,0,0.00
2013-2-11,38.5,28.3,12.9,35.8,23.2,5.3,93,81,68,30.13,29.49,9,2,0,0.12
2013-2-12,40.1,36.5,32.4,28.3,26.2,23.5,71,66,60,29.77,29.52,20,7,0,0.00
2013-2-13,37.4,32.3,27.9,24.8,22.4,19.2,80,67,51,29.76,29.61,8,4,0,0.00
2013-2-14,41.4,31.8,23.4,24.7,21.1,18.2,82,66,44,29.83,29.62,10,3,0,0.00
2013-2-15,47.3,36.9,28.8,29.2,24.6,20.5,92,63,40,29.89,29.76,19,5,0,0.00
2013-2-16,35.6,29.3,21.9,26.3,15.9,7.0,86,58,36,29.90,29.79,14,5,0,0.00
2013-2-17,23.9,18.2,11.3,6.8,1.3,-3.0,64,48,34,29.82,29.56,19,8,0,0.00
2013-2-18,32.2,19.4,5.9,7.7,-1.4,-6.0,69,43,20,30.08,29.82,11,4,0,0.00
2013-2-19,40.3,27.7,16.3,31.7,18.5,6.5,97,70,43,30.08,29.53,21,4,0,0.18
2013-2-20,33.4,27.6,23.9,28.8,17.2,13.0,83,65,52,29.77,29.54,18,8,0,0.03
2013-2-21,29.5,22.0,14.7,15.7,8.8,3.1,73,57,44,30.32,29.77,14,5,0,0.00
2013-2-22,36.7,28.8,20.7,22.3,18.9,14.9,82,67,51,30.37,30.16,7,3,0,0.00
2013-2-23,34.3,32.8,31.8,31.6,27.5,21.4,97,82,64,30.16,29.80,5,2,0,0.00
2013-2-24,37.6,33.5,31.6,34.8,32.0,30.1,98,94,85,29.88,29.68,6,2,0,0.38
2013-2-25,40.8,33.6,25.9,29.5,27.6,24.4,97,80,61,30.16,29.89,6,2,0,0.00
2013-2-26,43.3,36.2,26.8,31.1,28.2,24.5,97,74,56,30.24,29.97,9,3,0,0.00
2013-2-27,40.5,35.8,31.6,34.5,31.5,24.5,94,84,62,29.97,29.51,11,5,0,0.44
2013-2-28,45.0,37.1,32.7,35.2,33.0,31.6,96,86,65,29.52,29.45,6,2,0,0.03
2013-3-1,39.7,34.3,32.4,32.5,29.6,23.7,95,83,67,29.68,29.50,8,3,0,0.01
2013-3-2,37.8,30.9,23.7,29.7,23.5,18.2,89,74,58,29.68,29.63,10,5,0,0.00
2013-3-3,35.4,27.8,21.9,26.3,21.1,15.7,89,76,60,29.68,29.58,7,3,0,0.05
2013-3-4,36.9,29.7,23.5,20.5,18.3,16.0,77,63,50,29.81,29.62,18,4,0,0.01
2013-3-5,41.2,31.9,27.1,27.3,22.0,18.1,86,67,54,30.01,29.82,9,4,0,0.00
2013-3-6,41.9,34.9,26.1,29.1,25.5,22.4,90,70,52,30.08,29.97,12,5,0,0.00
2013-3-7,38.7,33.7,28.6,28.3,24.1,20.2,94,69,52,30.09,30.03,12,6,0,0.00
2013-3-8,44.8,33.8,28.4,28.1,25.4,22.4,94,73,47,30.22,30.03,18,7,0,0.13
2013-3-9,52.9,37.2,23.2,26.4,22.4,19.0,88,58,33,30.27,30.18,6,2,0,0.00
2013-3-10,53.4,40.2,24.3,29.6,23.6,19.3,85,54,32,30.27,30.08,13,5,0,0.00
2013-3-11,49.1,43.8,37.0,37.5,32.5,28.7,74,64,54,30.13,29.90,14,8,0,0.00
2013-3-12,52.2,48.5,39.0,50.5,45.0,32.0,96,88,70,29.92,29.55,17,6,0,2.03
2013-3-13,45.3,39.3,34.2,31.9,24.8,17.9,79,58,35,29.75,29.64,14,6,0,0.00
2013-3-14,33.3,26.6,23.0,20.1,11.4,4.5,65,52,40,29.82,29.70,21,8,0,0.02
2013-3-15,33.4,26.2,16.0,30.4,16.1,5.7,93,66,44,29.86,29.50,14,5,0,0.00
2013-3-16,34.5,27.2,19.6,17.3,15.0,12.1,72,60,48,29.82,29.68,12,4,0,0.00
2013-3-17,34.7,25.6,17.1,15.3,7.0,-0.4,86,49,25,30.27,29.82,14,6,0,0.00
2013-3-18,36.1,26.1,12.9,26.5,7.1,0.8,95,48,27,30.37,30.02,10,3,0,0.00
2013-3-19,35.8,30.6,27.1,31.7,28.5,22.2,96,92,73,30.01,29.62,6,1,0,0.08
2013-3-20,37.6,29.4,21.0,22.9,20.0,17.1,90,69,48,29.70,29.61,16,6,0,0.03
2013-3-21,38.3,27.6,18.5,19.2,16.5,13.1,88,65,37,29.71,29.53,10,4,0,0.05
2013-3-22,37.8,28.4,20.3,25.6,17.6,12.8,78,64,50,29.70,29.55,17,5,0,0.04
2013-3-23,40.3,33.7,27.9,20.9,19.3,16.9,73,56,40,29.78,29.64,24,9,0,0.01
2013-3-24,44.8,36.3,31.1,25.2,22.1,20.0,67,56,43,29.80,29.68,14,6,0,0.00
2013-3-25,43.3,36.6,28.8,27.6,24.2,20.7,72,61,50,29.71,29.45,11,5,0,0.00
2013-3-26,48.4,38.7,30.7,28.3,24.0,19.6,73,57,34,29.74,29.51,11,3,0,0.00
2013-3-27,51.4,38.2,26.2,29.1,24.9,21.2,86,61,35,29.84,29.72,16,4,0,0.00
2013-3-28,52.0,41.6,34.0,32.8,30.3,26.0,88,65,45,29.98,29.84,8,3,0,0.00
2013-3-29,50.9,41.9,30.6,34.3,29.8,27.4,88,63,48,30.02,29.93,10,3,0,0.00
2013-3-30,57.0,41.9,27.3,29.7,21.7,14.3,92,52,20,30.05,29.92,11,3,0,0.00
2013-3-31,57.0,41.5,26.8,39.6,27.3,19.3,91,60,31,30.01,29.63,26,6,0,0.38
2013-4-1,46.6,39.6,29.7,42.2,29.4,10.0,97,71,30,29.75,29.46,22,7,0,0.08
2013-4-2,35.8,30.2,24.1,19.0,13.1,8.8,66,49,33,29.88,29.74,25,10,0,0.02
2013-4-3,41.7,32.6,26.8,15.6,11.1,4.9,57,42,22,30.15,29.88,20,9,0,0.00
2013-4-4,53.6,39.1,25.5,23.7,19.4,15.7,68,47,27,30.23,29.84,17,6,0,0.00
2013-4-5,55.0,43.2,33.8,28.1,22.4,15.7,60,45,24,29.89,29.63,17,7,0,0.00
2013-4-6,49.6,36.7,26.8,15.8,8.3,3.0,50,32,16,30.20,29.89,16,7,0,0.00
2013-4-7,57.9,44.0,30.4,37.9,24.0,13.0,63,46,28,30.16,29.74,29,9,0,0.16
2013-4-8,61.5,51.7,43.9,38.0,33.8,31.5,68,52,34,30.03,29.83,14,4,0,0.00
2013-4-9,64.2,53.5,44.1,46.2,41.5,36.1,95,66,43,29.91,29.70,14,6,0,0.06
2013-4-10,55.6,48.1,43.0,47.7,44.2,41.3,97,87,68,29.93,29.77,11,4,0,0.65
2013-4-11,43.2,37.7,33.4,41.4,27.5,20.7,94,67,47,30.08,29.80,10,5,0,0.02
2013-4-12,35.6,34.2,32.0,35.1,30.7,21.9,98,88,60,30.07,29.70,8,4,0,0.84
2013-4-13,50.9,41.7,35.1,38.7,35.6,32.9,99,80,57,29.84,29.69,18,5,0,0.04
2013-4-14,48.9,41.7,34.0,35.8,28.7,23.2,91,62,38,30.15,29.83,20,6,0,0.00
2013-4-15,61.3,47.1,29.1,36.7,30.8,23.8,88,56,36,30.29,30.11,14,4,0,0.00
2013-4-16,57.6,52.6,46.9,53.7,42.5,31.2,92,70,52,30.20,29.89,19,8,0,0.13
2013-4-17,64.0,52.3,42.8,43.8,33.5,28.8,75,51,30,30.24,30.02,16,6,0,0.00
2013-4-18,63.7,50.9,37.0,45.5,34.9,28.3,74,55,37,30.26,29.91,21,7,0,0.00
2013-4-19,71.4,61.6,46.8,61.8,54.1,44.9,94,77,60,29.91,29.37,21,10,0,1.04
2013-4-20,50.7,43.9,35.8,44.8,30.7,18.0,97,63,36,30.21,29.60,23,9,0,0.18
2013-4-21,53.2,40.1,30.0,22.3,18.7,14.7,61,44,25,30.58,30.21,11,5,0,0.00
2013-4-22,60.6,45.3,30.9,26.3,22.2,19.1,65,43,21,30.64,30.39,12,4,0,0.00
2013-4-23,58.3,45.5,32.2,39.7,31.3,24.4,74,58,44,30.43,30.04,10,3,0,0.00
2013-4-24,72.0,55.2,35.2,50.7,41.5,33.6,94,63,40,30.03,29.55,20,5,0,0.02
2013-4-25,62.8,49.8,41.5,50.8,30.1,23.8,85,49,24,30.16,29.63,20,7,0,0.03
2013-4-26,60.1,47.2,37.4,38.1,31.0,27.7,79,55,34,30.37,30.16,9,3,0,0.01
2013-4-27,67.8,51.3,34.9,34.5,31.1,28.7,78,49,25,30.40,30.19,7,3,0,0.00
2013-4-28,74.5,58.5,39.2,43.5,36.6,31.6,76,47,29,30.25,29.98,12,4,0,0.00
2013-4-29,60.8,56.9,52.9,45.1,39.7,32.6,66,53,41,30.13,30.05,11,5,0,0.00
2013-4-30,77.9,61.8,50.9,46.8,43.2,39.8,69,52,32,30.21,30.10,9,4,0,0.00
2013-5-1,82.2,65.6,46.9,41.4,35.8,31.3,65,35,19,30.38,30.20,7,3,0,0.00
2013-5-2,88.9,68.5,50.2,46.4,42.4,38.6,68,42,20,30.41,30.13,8,4,0,0.00
2013-5-3,78.3,64.4,53.6,41.4,35.8,29.0,51,35,23,30.43,30.19,8,3,0,0.00
2013-5-4,83.5,65.7,47.1,46.3,40.5,30.0,82,44,19,30.29,30.03,7,3,0,0.00
2013-5-5,81.0,64.6,49.3,41.7,37.6,31.5,72,40,20,30.24,29.99,8,4,0,0.00
2013-5-6,80.1,63.4,47.7,44.4,35.4,20.8,77,42,13,30.20,29.94,10,4,0,0.00
2013-5-7,87.3,68.5,49.5,53.8,47.1,39.3,82,50,22,30.09,29.87,7,3,0,0.00
2013-5-8,77.4,66.9,56.3,60.5,55.3,50.7,88,68,48,30.05,29.89,7,3,0,0.02
2013-5-9,74.3,63.2,53.8,57.5,53.3,50.0,98,72,44,29.88,29.74,8,2,0,0.00
2013-5-10,79.5,62.8,53.2,57.2,53.4,51.0,95,74,45,29.90,29.80,7,3,0,0.00
2013-5-11,69.1,63.4,56.7,63.0,56.7,48.9,93,79,67,29.59,29.51,11,5,0,0.06
2013-5-12,60.1,54.2,44.1,48.5,37.3,22.5,80,56,28,29.72,29.53,26,7,0,0.00
2013-5-13,49.8,44.3,38.7,32.8,29.2,26.1,79,56,45,30.00,29.72,18,7,0,0.00
2013-5-14,61.2,47.8,33.8,33.9,29.9,25.4,87,53,27,30.05,29.90,9,3,0,0.00
2013-5-15,60.1,48.8,34.0,49.0,39.2,31.0,92,71,46,29.95,29.51,12,4,0,0.03
2013-5-16,78.6,63.7,47.1,47.0,39.6,29.9,94,47,19,29.77,29.52,29,7,0,0.06
2013-5-17,72.1,59.5,47.1,42.6,39.0,35.8,69,49,27,30.13,29.77,10,4,0,0.00
2013-5-18,75.9,61.6,42.8,47.5,41.6,38.1,88,52,27,30.23,30.08,9,4,0,0.00
2013-5-19,61.5,56.5,48.7,55.7,51.6,45.3,95,84,65,30.22,30.07,14,4,0,0.14
2013-5-20,81.3,65.5,55.9,63.6,58.7,53.9,96,80,55,30.08,29.81,9,4,0,0.00
2013-5-21,86.9,69.3,60.8,66.8,61.8,58.3,96,79,48,29.85,29.70,10,4,0,0.68
2013-5-22,77.9,68.6,61.5,68.1,64.5,60.1,98,87,69,29.75,29.65,12,5,0,0.46
2013-5-23,78.4,70.1,63.9,68.3,64.8,61.9,95,84,60,29.72,29.61,15,6,0,0.43
2013-5-24,63.9,52.2,43.5,62.4,50.1,41.3,97,92,84,29.93,29.55,13,5,0,0.74
2013-5-25,45.0,43.7,42.6,42.2,40.7,38.2,94,89,83,29.91,29.83,20,8,0,0.77
2013-5-26,56.5,48.6,42.3,44.3,40.3,38.2,95,74,51,30.04,29.78,17,6,0,0.07
2013-5-27,78.6,58.3,36.1,45.5,36.9,28.8,98,54,18,30.12,29.96,10,3,0,0.00
2013-5-28,73.4,60.4,43.5,50.5,43.4,39.0,85,56,31,30.14,30.00,10,4,0,0.00
2013-5-29,74.1,63.0,56.5,66.9,59.8,51.4,97,90,72,30.02,29.82,10,3,0,0.47
2013-5-30,91.4,75.2,61.0,69.0,63.4,60.7,99,71,41,30.00,29.89,14,5,0,0.00
2013-5-31,94.6,79.5,63.1,70.2,64.5,60.4,92,64,35,30.01,29.80,12,4,0,0.00
2013-6-1,92.5,80.9,70.0,69.3,65.6,63.0,79,61,40,29.87,29.68,12,6,0,0.00
2013-6-2,86.2,73.6,65.7,68.9,66.4,63.0,93,79,56,29.72,29.57,14,5,0,1.18
2013-6-3,73.0,65.7,54.0,63.5,51.2,36.2,92,62,37,29.81,29.69,16,6,0,0.00
2013-6-4,76.1,62.4,48.9,44.4,41.0,36.4,71,47,31,30.02,29.81,17,5,0,0.00
2013-6-5,75.4,63.5,48.6,48.8,45.2,40.9,81,53,36,30.13,29.97,8,3,0,0.00
2013-6-6,76.1,64.0,54.7,51.9,46.4,42.8,66,53,40,30.06,29.93,10,3,0,0.00
2013-6-7,55.8,54.9,53.6,54.1,53.1,51.9,94,94,93,29.79,29.72,7,5,0,0.19
2013-6-8,72.0,62.1,53.2,61.5,56.4,51.8,96,83,64,29.92,29.64,8,4,0,0.34
2013-6-9,82.0,67.4,56.1,58.0,55.2,53.0,93,67,41,30.06,29.92,14,3,0,0.00
2013-6-10,74.1,63.3,54.5,60.7,56.5,51.5,95,80,56,30.08,29.80,5,3,0,0.36
2013-6-11,63.1,60.5,58.1,60.2,58.3,54.7,96,93,81,29.78,29.44,7,3,0,1.23
2013-6-12,74.1,64.5,58.1,54.9,52.3,50.1,87,66,45,29.74,29.52,18,6,0,0.00
2013-6-13,60.8,56.9,51.4,57.3,53.8,49.4,94,89,84,29.73,29.58,7,2,0,0.81
2013-6-14,81.1,66.3,54.1,57.9,53.3,49.2,95,67,36,29.76,29.59,14,4,0,0.00
2013-6-15,82.6,68.2,50.7,51.3,46.6,38.8,85,49,22,29.89,29.73,17,4,0,0.00
2013-6-16,72.9,63.6,55.2,60.9,53.4,43.8,89,70,51,29.86,29.60,10,4,0,0.06
2013-6-17,81.7,67.1,57.6,63.6,59.1,55.9,95,77,48,29.82,29.65,12,3,0,0.18
2013-6-18,68.9,59.7,54.3,57.7,53.0,49.9,90,79,61,29.91,29.80,14,3,0,0.03
2013-6-19,75.7,63.1,50.4,50.9,43.8,37.5,91,54,28,30.08,29.88,11,4,0,0.00
2013-6-20,82.8,65.8,47.7,54.4,48.3,43.2,88,57,28,30.20,30.03,10,4,0,0.00
2013-6-21,86.0,71.6,55.8,56.6,53.8,49.6,85,56,35,30.17,30.07,10,4,0,0.00
2013-6-22,84.9,73.5,60.3,66.3,61.4,55.1,85,67,53,30.10,29.94,16,4,0,0.00
2013-6-23,90.7,77.0,69.1,73.7,66.0,61.5,84,70,55,30.00,29.82,17,5,0,0.00
2013-6-24,92.8,77.7,68.0,73.0,67.4,63.8,90,72,46,29.90,29.79,10,5,0,0.01
2013-6-25,89.1,74.8,65.8,71.8,67.4,63.7,93,79,53,29.86,29.63,12,5,0,0.05
2013-6-26,83.5,73.0,68.4,70.3,67.8,66.0,93,85,62,29.70,29.63,8,3,0,0.15
2013-6-27,90.1,76.4,67.1,70.3,67.6,64.5,96,76,43,29.70,29.52,10,4,0,0.03
2013-6-28,81.9,72.4,64.9,68.1,65.2,62.1,94,79,59,29.54,29.26,23,7,0,1.23
2013-6-29,84.4,72.7,64.0,69.9,64.3,61.8,93,76,56,29.56,29.36,14,4,0,0.03
2013-6-30,87.1,75.0,64.4,69.3,65.4,62.6,94,74,51,29.80,29.56,14,4,0,0.01
2013-7-1,74.3,70.1,65.1,67.2,65.1,63.2,94,84,74,29.93,29.80,10,3,0,0.31
2013-7-2,85.5,69.9,62.8,72.3,65.7,61.3,95,87,64,30.02,29.92,10,3,0,0.64
2013-7-3,88.9,78.8,69.6,74.0,70.9,67.8,95,78,61,30.08,29.99,11,5,0,0.02
2013-7-4,90.5,81.8,72.5,75.7,71.8,69.7,91,73,58,30.10,29.95,10,5,0,0.01
2013-7-5,92.5,80.7,72.3,76.0,72.0,69.2,93,77,51,30.05,29.92,14,4,0,0.95
2013-7-6,89.8,78.2,71.2,72.4,68.8,64.3,96,75,45,30.00,29.89,10,4,0,0.11
2013-7-7,92.7,78.5,69.8,75.9,68.8,63.4,90,73,53,29.95,29.77,8,4,0,0.15
2013-7-8,89.1,77.0,71.8,72.0,69.9,67.3,93,80,56,29.94,29.82,6,3,0,0.09
2013-7-9,90.0,78.0,68.0,71.6,68.5,65.9,93,74,55,29.98,29.85,7,4,0,0.00
2013-7-10,83.7,76.3,72.7,73.7,70.5,67.2,92,82,66,29.88,29.64,12,5,0,0.40
2013-7-11,87.4,76.3,68.9,72.9,64.1,56.6,92,68,37,29.88,29.63,13,4,0,0.01
2013-7-12,83.7,73.2,62.6,64.2,59.3,56.2,84,63,46,30.09,29.89,9,4,0,0.00
2013-7-13,80.4,72.1,63.9,68.6,62.4,56.4,84,72,61,30.19,30.10,6,3,0,0.00
2013-7-14,90.0,79.6,71.6,73.7,70.4,67.2,89,74,59,30.22,30.11,7,2,0,0.00
2013-7-15,98.8,83.3,70.3,72.5,68.8,63.3,93,65,36,30.15,30.01,9,3,0,0.00
2013-7-16,95.5,83.3,69.8,71.7,67.8,63.0,84,61,43,30.13,30.03,6,2,0,0.00
2013-7-17,95.2,83.9,72.1,75.8,71.6,67.9,88,68,50,30.11,29.87,12,5,0,0.00
2013-7-18,97.3,86.2,74.8,73.1,70.9,68.3,87,62,40,29.93,29.79,12,4,0,0.00
2013-7-19,96.4,84.6,71.4,75.6,71.5,67.7,88,66,47,29.82,29.57,19,6,0,0.07
2013-7-20,86.0,76.2,69.3,69.0,66.5,62.2,91,73,53,29.72,29.57,17,5,0,0.01
2013-7-21,84.2,72.5,63.3,64.2,60.9,57.4,91,69,49,29.88,29.72,8,3,0,0.00
2013-7-22,86.9,73.0,60.8,69.9,62.0,54.6,92,70,50,29.91,29.71,7,3,0,0.81
2013-7-23,84.0,73.1,67.6,69.6,67.6,65.6,94,84,62,29.72,29.44,12,4,0,1.77
2013-7-24,78.3,70.2,57.2,67.7,57.5,46.7,91,66,44,29.93,29.47,17,6,0,0.00
2013-7-25,77.5,64.1,51.4,55.2,49.9,46.5,85,62,39,30.02,29.92,13,4,0,0.00
2013-7-26,80.2,67.7,57.9,59.6,55.1,50.7,79,65,47,29.98,29.86,8,3,0,0.00
2013-7-27,84.4,71.5,56.5,63.4,59.3,53.6,91,67,43,29.94,29.80,8,2,0,0.00
2013-7-28,75.2,70.3,66.6,66.8,63.5,60.3,90,79,67,29.86,29.80,13,4,0,0.01
2013-7-29,82.8,74.1,66.6,66.2,59.5,51.5,93,64,35,29.99,29.82,12,5,0,0.00
2013-7-30,79.3,69.9,59.9,61.2,57.0,52.6,78,64,51,30.05,29.95,10,4,0,0.00
2013-7-31,82.2,70.3,58.1,61.7,58.3,54.6,91,67,46,30.05,29.90,9,3,0,0.00
2013-8-1,77.4,67.5,61.0,66.2,61.7,57.7,90,82,62,29.92,29.71,14,4,0,0.20
2013-8-2,82.8,71.8,63.1,64.5,59.1,53.0,95,68,38,29.75,29.68,14,5,0,0.00
2013-8-3,80.6,69.4,59.4,60.6,56.0,52.7,90,65,41,29.75,29.67,20,6,0,0.08
2013-8-4,77.4,67.6,56.5,59.1,53.5,49.5,90,62,41,29.85,29.70,12,4,0,0.08
2013-8-5,77.5,65.6,52.9,50.0,46.2,40.0,75,52,30,29.96,29.83,11,5,0,0.00
2013-8-6,81.0,66.7,52.2,56.0,52.5,48.4,88,63,38,30.04,29.93,7,3,0,0.00
2013-8-7,77.9,70.3,63.0,63.0,59.4,54.7,79,69,57,30.05,29.91,14,5,0,0.00
2013-8-8,85.8,74.8,69.8,70.8,66.8,61.8,90,77,61,29.91,29.83,10,5,0,0.23
2013-8-9,82.4,74.3,70.7,72.5,70.2,64.6,93,87,70,29.85,29.64,9,4,0,0.19
2013-8-10,81.3,72.3,61.2,63.3,52.2,41.2,86,54,25,29.94,29.71,17,6,0,0.00
2013-8-11,80.6,68.0,53.4,57.8,52.9,48.4,89,61,37,30.02,29.84,10,4,0,0.00
2013-8-12,83.1,70.1,56.1,60.3,56.5,52.2,90,64,38,29.94,29.78,11,3,0,0.00
2013-8-13,74.1,66.1,63.5,64.9,61.8,54.3,94,86,72,29.78,29.57,10,3,0,1.04
2013-8-14,73.0,62.9,54.5,53.8,51.2,48.7,86,67,46,29.89,29.63,18,6,0,0.00
2013-8-15,75.7,63.0,49.8,54.9,50.2,47.2,93,66,40,30.03,29.88,16,5,0,0.00
2013-8-16,79.7,66.4,54.0,59.6,53.4,49.0,91,66,40,30.10,29.99,8,3,0,0.00
2013-8-17,82.0,68.9,55.4,60.7,57.3,52.2,91,68,46,30.20,30.09,7,2,0,0.00
2013-8-18,76.6,68.0,59.2,63.2,60.1,56.6,91,77,59,30.19,29.99,7,3,0,0.00
2013-8-19,86.9,71.5,60.4,66.3,61.6,58.1,95,73,42,30.01,29.84,11,3,0,0.00
2013-8-20,88.5,73.2,59.2,66.8,60.8,56.4,92,68,39,30.01,29.91,8,3,0,0.00
2013-8-21,88.3,75.0,62.6,68.4,62.6,59.6,90,68,43,30.07,29.90,9,4,0,0.00
2013-8-22,87.6,74.9,64.0,69.2,64.4,60.5,89,72,48,29.92,29.69,14,5,0,0.01
2013-8-23,78.8,69.4,59.5,64.8,56.3,50.4,88,65,42,30.07,29.77,13,5,0,0.00
2013-8-24,81.9,66.8,52.7,55.2,51.8,49.7,90,62,36,30.24,30.07,6,3,0,0.00
2013-8-25,82.9,68.2,52.9,61.0,55.5,50.3,92,66,38,30.31,30.01,14,4,0,0.00
2013-8-26,81.7,70.9,64.6,67.8,63.4,58.6,94,78,62,30.04,29.78,12,6,0,0.22
2013-8-27,83.5,74.7,67.6,68.6,67.0,65.7,95,78,60,29.81,29.74,6,2,0,0.01
2013-8-28,89.1,75.9,65.1,70.1,66.6,63.6,95,75,47,29.82,29.70,6,2,0,0.00
2013-8-29,82.2,72.1,65.8,66.7,64.4,62.7,91,78,57,29.96,29.81,6,2,0,0.03
2013-8-30,86.9,75.1,66.6,70.3,65.9,62.8,88,74,56,29.89,29.67,14,4,0,0.00
2013-8-31,80.6,72.6,67.8,72.9,68.6,65.6,95,88,75,29.70,29.61,9,4,0,0.65
2013-9-1,83.3,74.4,68.4,69.6,68.2,67.0,96,82,63,29.75,29.67,7,2,0,0.00
2013-9-2,81.7,73.0,64.4,70.4,67.2,62.9,95,83,64,29.70,29.54,22,4,0,0.92
2013-9-3,77.4,67.9,62.4,63.7,59.9,54.9,96,77,52,29.74,29.60,15,5,0,0.00
2013-9-4,80.2,69.3,58.5,57.8,55.5,50.1,92,64,43,29.84,29.74,15,6,0,0.00
2013-9-5,71.1,63.0,52.7,58.3,46.6,38.0,89,58,32,30.11,29.76,14,5,0,0.01
2013-9-6,70.5,57.6,43.2,48.0,43.0,38.2,89,61,39,30.21,30.01,9,3,0,0.00
2013-9-7,72.9,59.6,50.2,56.8,50.6,45.5,85,73,52,30.02,29.74,17,4,0,0.02
2013-9-8,69.4,62.1,51.4,57.9,48.5,39.6,90,64,36,30.01,29.67,17,5,0,0.00
2013-9-9,68.9,56.8,44.1,51.9,45.8,39.1,91,68,48,30.13,29.95,10,4,0,0.00
2013-9-10,76.3,65.9,57.7,68.2,61.1,50.9,94,85,76,29.97,29.87,8,3,0,0.23
2013-9-11,93.6,77.7,68.2,77.8,71.2,66.1,96,82,54,29.96,29.78,11,5,0,0.29
2013-9-12,85.3,72.5,67.5,71.2,67.5,64.8,93,85,62,29.81,29.53,12,5,0,0.16
2013-9-13,67.3,61.5,54.3,64.8,57.3,47.3,94,86,74,29.77,29.50,12,4,0,0.28
2013-9-14,66.4,57.7,52.2,51.8,47.1,42.4,77,68,54,30.02,29.76,8,4,0,0.00
2013-9-15,69.1,56.4,43.9,54.1,48.3,41.7,94,75,53,30.12,29.93,10,3,0,0.00
2013-9-16,63.5,54.9,43.7,53.2,47.3,38.3,92,76,59,30.23,29.92,13,4,0,0.02
2013-9-17,66.9,51.8,37.8,45.3,40.3,35.7,92,68,39,30.40,30.22,6,2,0,0.00
2013-9-18,71.6,54.8,41.2,52.8,46.8,39.9,96,77,48,30.26,30.02,9,3,0,0.00
2013-9-19,76.5,59.2,44.1,56.3,49.7,42.5,95,74,37,30.10,29.91,7,2,0,0.00
2013-9-20,79.5,63.6,48.7,59.4,53.7,46.8,95,73,44,30.02,29.80,10,3,0,0.00
2013-9-21,74.3,65.4,57.2,63.2,57.5,53.5,93,77,53,29.86,29.47,20,8,0,0.42
2013-9-22,64.4,58.2,48.4,59.4,48.7,38.3,95,72,48,29.81,29.46,14,6,0,0.16
2013-9-23,62.1,51.5,43.3,41.9,38.6,35.9,77,62,46,29.97,29.81,14,6,0,0.00
2013-9-24,70.9,52.8,38.1,49.1,41.2,35.0,90,67,45,29.97,29.74,8,2,0,0.00
2013-9-25,69.8,56.2,42.6,52.2,46.9,40.7,95,73,53,29.90,29.77,8,3,0,0.00
2013-9-26,67.3,55.8,46.6,49.1,46.6,44.1,91,72,52,30.07,29.89,9,4,0,0.00
2013-9-27,62.2,53.9,45.1,50.8,47.7,43.2,94,81,63,30.22,30.06,7,2,0,0.00
2013-9-28,74.5,56.9,42.8,55.1,48.8,41.7,97,77,42,30.30,30.15,7,2,0,0.00
2013-9-29,74.1,58.8,45.1,55.7,49.7,43.5,94,74,45,30.15,29.94,7,2,0,0.00
2013-9-30,74.1,59.0,45.9,55.9,49.9,44.0,94,74,45,30.01,29.84,5,2,0,0.00
2013-10-1,77.9,61.2,46.8,61.8,52.4,45.2,94,75,54,29.95,29.74,7,2,0,0.00
2013-10-2,79.9,65.9,54.0,61.5,54.9,51.3,92,70,45,29.90,29.74,12,4,0,0.00
2013-10-3,72.0,59.9,46.6,53.4,50.2,44.4,92,72,49,30.05,29.90,8,2,0,0.00
2013-10-4,64.0,57.8,51.8,57.4,53.5,49.5,92,86,77,30.00,29.93,4,2,0,0.20
2013-10-5,64.9,59.6,56.5,53.8,50.0,45.1,84,71,61,30.03,29.96,5,2,0,0.00
2013-10-6,59.0,56.6,53.1,55.9,52.1,45.9,95,85,66,30.04,29.95,6,3,0,0.53
2013-10-7,74.8,61.6,52.7,64.9,57.1,48.1,96,86,68,29.94,29.47,22,5,0,0.44
2013-10-8,67.3,54.4,44.1,49.5,43.4,39.3,93,69,42,30.29,29.83,9,3,0,0.00
2013-10-9,66.2,51.0,37.9,44.3,39.9,34.9,96,71,32,30.41,30.24,6,2,0,0.00
2013-10-10,64.4,51.3,39.6,50.5,44.3,37.7,95,78,57,30.27,30.08,7,2,0,0.00
2013-10-11,74.7,57.7,48.7,51.1,47.3,44.1,89,71,34,30.09,29.99,6,2,0,0.00
2013-10-12,76.8,57.9,43.7,54.4,48.3,41.2,93,73,44,30.26,30.06,7,3,0,0.00
2013-10-13,69.3,57.4,48.6,50.9,48.7,46.4,92,74,49,30.34,30.20,8,3,0,0.00
2013-10-14,66.6,57.4,50.0,54.0,50.2,46.2,87,77,63,30.28,30.13,8,4,0,0.00
2013-10-15,67.6,59.8,54.9,57.1,54.1,52.3,91,82,68,30.17,30.00,5,2,0,0.00
2013-10-16,63.5,57.9,53.1,54.4,51.2,44.2,93,79,71,30.02,29.75,9,4,0,0.00
2013-10-17,70.2,60.6,53.6,55.0,50.9,46.4,93,73,46,29.78,29.53,11,4,0,0.17
2013-10-18,63.5,55.8,48.0,52.0,45.5,37.0,95,70,40,29.86,29.49,19,7,0,0.55
2013-10-19,63.7,52.0,38.8,47.3,42.5,36.4,93,72,48,29.86,29.57,12,5,0,0.04
2013-10-20,57.0,50.0,43.5,47.7,40.2,36.6,89,70,48,29.92,29.55,16,6,0,0.00
2013-10-21,66.0,52.2,39.4,44.4,40.9,37.0,91,68,43,30.00,29.79,14,4,0,0.00
2013-10-22,55.8,50.8,42.3,48.8,40.9,32.0,88,69,49,29.78,29.63,14,5,0,0.03
2013-10-23,51.4,43.9,36.9,38.0,34.6,31.9,85,70,57,29.69,29.50,7,3,0,0.00
2013-10-24,46.6,40.5,32.4,34.4,32.5,29.8,92,74,57,29.81,29.58,18,6,0,0.00
2013-10-25,47.7,41.4,37.0,33.6,31.0,26.6,83,68,46,30.04,29.80,17,5,0,0.00
2013-10-26,49.6,42.9,36.7,35.2,32.8,27.4,91,69,42,30.04,29.70,17,6,0,0.00
2013-10-27,50.4,45.1,39.9,37.2,33.9,29.6,77,65,49,29.97,29.68,18,6,0,0.00
2013-10-28,54.9,42.1,30.0,38.4,30.7,22.8,83,65,37,30.29,29.95,16,5,0,0.00
2013-10-29,46.8,35.0,24.4,28.4,23.5,20.4,89,65,37,30.38,30.25,8,2,0,0.00
2013-10-30,50.4,39.4,33.1,39.9,32.3,25.6,91,76,67,30.24,30.09,6,2,0,0.00
2013-10-31,59.9,45.0,32.7,58.3,43.4,31.4,96,94,89,30.15,29.52,16,4,0,0.49
2013-11-1,69.8,61.5,52.9,60.7,52.6,40.6,95,75,37,29.58,29.23,25,10,0,1.02
2013-11-2,61.0,48.3,39.9,45.7,41.2,34.9,94,77,54,29.76,29.49,16,4,0,0.00
2013-11-3,42.1,35.8,29.5,34.9,23.0,17.5,82,60,39,30.39,29.76,14,6,0,0.00
2013-11-4,40.5,31.4,23.4,22.2,18.2,15.8,82,59,38,30.59,30.39,12,3,0,0.00
2013-11-5,49.8,38.0,25.2,35.8,28.7,21.1,88,70,53,30.60,30.36,14,3,0,0.00
2013-11-6,59.5,50.1,39.0,46.8,42.1,34.5,85,75,62,30.37,29.82,16,6,0,0.00
2013-11-7,53.6,48.2,34.3,50.8,39.6,23.3,95,73,50,29.81,29.65,16,6,0,0.16
2013-11-8,45.0,37.4,30.0,27.4,23.5,21.6,80,58,40,30.05,29.76,20,6,0,0.00
2013-11-9,42.1,36.1,27.9,31.9,27.4,22.2,83,71,58,30.12,29.81,8,3,0,0.00
2013-11-10,49.8,41.8,37.2,38.8,34.4,29.3,86,75,61,29.87,29.63,19,7,0,0.02
2013-11-11,45.1,41.4,36.7,36.1,30.4,25.8,82,65,53,30.03,29.78,18,7,0,0.00
2013-11-12,40.6,30.6,24.8,36.2,19.3,14.0,85,63,50,30.17,29.80,12,6,0,0.00
2013-11-13,36.5,27.8,18.7,21.9,14.8,6.8,77,59,30,30.26,30.03,11,5,0,0.00
2013-11-14,48.7,36.6,28.0,27.9,23.4,20.4,76,60,43,30.02,29.94,12,6,0,0.00
2013-11-15,54.5,43.0,36.1,28.8,22.2,18.3,67,44,29,30.09,29.98,12,5,0,0.00
2013-11-16,58.3,45.3,35.8,37.1,31.5,25.4,83,60,42,30.21,30.08,9,3,0,0.00
2013-11-17,58.6,47.4,35.6,56.0,43.8,30.9,98,87,77,30.15,29.56,10,3,0,0.26
2013-11-18,61.9,53.6,40.1,57.0,43.1,29.0,93,69,51,29.62,29.30,27,10,0,0.31
2013-11-19,39.7,34.9,27.9,32.0,22.2,15.3,88,60,47,30.29,29.62,20,8,0,0.00
2013-11-20,38.3,28.8,22.3,19.5,17.2,14.9,82,62,43,30.55,30.29,8,3,0,0.00
2013-11-21,41.2,30.9,18.9,27.3,21.2,16.5,94,69,44,30.54,30.26,9,2,0,0.00
2013-11-22,45.3,38.6,33.8,41.3,36.2,27.6,98,91,68,30.26,29.74,9,2,0,0.18
2013-11-23,44.8,34.3,24.1,38.4,21.2,8.2,78,59,41,29.91,29.69,25,9,0,0.06
2013-11-24,24.1,19.2,13.6,15.7,3.1,0.5,79,49,38,30.18,29.78,28,8,0,0.00
2013-11-25,30.6,21.0,8.8,18.3,10.3,0.5,83,63,51,30.32,30.10,14,4,0,0.00
2013-11-26,32.7,29.9,27.0,31.2,26.3,16.8,97,87,57,30.19,29.84,12,4,0,0.10
2013-11-27,38.3,35.7,32.0,37.8,34.5,27.9,99,95,80,29.84,29.27,9,3,0,1.88
2013-11-28,33.3,24.5,18.1,27.8,10.9,3.6,80,57,35,30.34,29.48,18,8,0,0.01
2013-11-29,28.6,20.4,14.2,13.6,11.1,7.6,89,69,43,30.66,30.34,7,3,0,0.00
2013-11-30,28.0,20.2,9.7,18.8,12.3,7.6,92,72,56,30.69,30.26,10,3,0,0.00
2013-12-1,41.5,33.4,26.6,30.6,26.9,18.9,91,77,65,30.25,29.92,9,2,0,0.00
2013-12-2,37.8,34.4,30.4,33.3,31.2,28.8,94,88,81,29.92,29.80,5,1,0,0.00
2013-12-3,44.2,35.0,27.9,36.4,31.5,26.4,96,87,74,29.90,29.78,5,1,0,0.00
2013-12-4,39.9,31.1,24.3,29.3,26.0,23.1,95,82,60,30.06,29.89,5,2,0,0.00
2013-12-5,52.2,41.7,28.8,50.0,38.2,25.4,95,87,79,30.05,29.75,11,3,0,0.00
2013-12-6,50.5,40.5,31.1,49.1,35.2,27.4,96,82,69,30.10,29.79,9,4,0,0.45
2013-12-7,36.0,31.8,26.8,29.6,20.7,14.1,94,65,44,30.40,30.05,14,5,0,0.00
2013-12-8,30.6,27.5,24.8,18.0,14.7,11.2,69,58,52,30.51,30.35,9,3,0,0.00
2013-12-9,33.1,28.9,24.4,32.6,26.4,18.0,98,91,69,30.35,29.78,8,3,0,0.00
2013-12-10,34.5,29.9,22.1,29.4,18.8,9.0,92,64,48,29.89,29.71,16,7,0,0.01
2013-12-11,30.7,24.8,19.2,18.4,12.9,8.3,90,62,39,30.09,29.89,22,8,0,0.01
2013-12-12,21.0,16.8,10.0,11.4,5.6,-3.3,81,62,38,30.23,29.91,13,5,0,0.00
2013-12-13,24.8,17.7,5.7,17.7,8.5,-1.2,85,68,42,30.34,29.83,14,5,0,0.00
2013-12-14,13.6,8.1,3.6,11.5,1.8,-2.5,91,76,57,30.51,29.98,9,4,0,0.00
2013-12-15,29.5,22.9,13.8,25.3,19.8,11.7,94,88,75,29.95,29.43,12,5,0,0.00
2013-12-16,23.7,17.9,6.1,18.4,8.2,1.4,90,66,46,30.13,29.61,16,6,0,0.00
2013-12-17,13.6,7.0,-3.6,11.0,3.7,-6.5,89,86,79,30.15,29.89,5,1,0,0.00
2013-12-18,28.0,20.5,11.7,22.2,16.3,9.3,91,84,73,29.94,29.84,8,3,0,0.00
2013-12-19,37.9,31.6,26.1,27.7,23.9,20.9,84,73,61,29.98,29.84,11,5,0,0.04
2013-12-20,42.8,37.2,34.0,36.2,31.1,26.1,92,79,65,29.97,29.78,11,3,0,0.12
2013-12-21,45.3,39.4,30.7,42.4,36.6,30.0,97,90,76,29.80,29.71,8,3,0,0.49
2013-12-22,32.9,30.1,27.3,32.7,29.4,26.3,99,97,95,29.84,29.58,8,2,0,0.00
2013-12-23,39.6,34.2,32.4,37.3,32.3,20.8,99,93,61,30.08,29.84,14,2,0,0.05
2013-12-24,32.0,24.7,14.9,20.9,14.7,3.9,86,66,53,30.22,30.02,14,5,0,0.00
2013-12-25,17.2,11.8,5.4,6.8,3.1,-1.0,75,68,58,30.46,30.23,6,2,0,0.00
2013-12-26,29.5,22.7,13.8,24.8,19.1,6.2,93,86,71,30.29,29.99,8,3,0,0.00
2013-12-27,31.5,28.4,25.2,25.2,21.7,17.8,86,76,65,30.18,30.07,16,6,0,0.00
2013-12-28,38.3,30.9,25.3,31.7,25.9,21.2,95,82,73,30.08,29.91,9,4,0,0.00
2013-12-29,35.4,30.5,25.7,32.0,28.7,24.4,98,93,81,29.91,29.49,5,1,0,0.42
2013-12-30,35.1,24.9,10.0,33.2,17.1,3.7,99,73,50,30.11,29.51,14,6,0,0.19
2013-12-31,21.0,12.7,6.3,14.6,6.8,2.0,90,77,64,30.09,29.90,15,4,0,0.07
2014-1-1,21.4,14.6,4.5,10.3,7.3,0.5,87,73,54,30.32,30.07,9,4,0,0.00
2014-1-2,4.1,0.8,-4.7,0.9,-2.3,-7.6,88,86,83,30.28,29.84,12,5,0,0.00